Terminal Aerodrome Forecast
Issued by NWS

Home | Current Version | Previous Version | Text Only | Print | Product List | Glossary Off
Versions: 1 2 3 4 5 6 7 8 9 10 11 12

088
FTUS43 KICT 042339
TAFCNU
TAF
KCNU 042339Z 0500/0524 27007KT P6SM SKC
     FM050300 VRB05KT P6SM SCT250
     FM051600 21010KT P6SM SCT250
     FM051900 24012G20KT P6SM SCT250=

USA.gov is the U.S. government's official web portal to all federal, state and local government web resources and services.